LIEO/OLB METAR and TAF weather

Enter ICAO airport designator
Station Type Date Time Source
LIEO METAR 2023/02/06 18:50 UTC NOAA

LIEO 061850Z VRB02KT 8000 -RA BKN030 07/05 Q1028


Station Type Date Time Source
LIEO Decoded METAR 2023/02/06 18:50 UTC NOAA

Olbia / Costa Smeralda, Italy (LIEO) 40-54N 009-31E 13M
Feb 06, 2023 - 01:50 PM EST / 2023.02.06 1850 UTC
Wind: Variable at 2 MPH (2 KT):0
Visibility: 4 mile(s):0
Sky conditions: mostly cloudy
Weather: light rain
Temperature: 44 F (7 C)
Dew Point: 41 F (5 C)
Relative Humidity: 87%
Pressure (altimeter): 30.36 in. Hg (1028 hPa)
ob: LIEO 061850Z VRB02KT 8000 -RA BKN030 07/05 Q1028
cycle: 19

Station Type Date Time Source
LIEO TAF 2023/02/06 18:51 UTC NOAA

TAF LIEO 061700Z 0618/0718 03010KT 9999 SCT030
TEMPO 0619/0706 4000 RA FEW010
BECMG 0620/0622 VRB06KT
BECMG 0710/0712 11013KT

Example: see airport list